createdAt,value
2022-08-10T00:01:51.307Z,99281.25
2022-08-10T00:04:22.418Z,99274.50
2022-08-10T00:06:53.389Z,99273.50
2022-08-10T00:09:22.301Z,99276.63
2022-08-10T00:11:50.558Z,99274.78
2022-08-10T00:14:18.861Z,99283.41
2022-08-10T00:16:47.097Z,99285.78
2022-08-10T00:19:16.744Z,99279.19
2022-08-10T00:21:48.690Z,99278.38
2022-08-10T00:24:17.032Z,99281.06
2022-08-10T00:28:02.114Z,99280.66
2022-08-10T00:29:33.285Z,99280.63
2022-08-10T00:32:01.513Z,99290.53
2022-08-10T00:34:30.048Z,99285.16
2022-08-10T00:37:00.702Z,99267.41
2022-08-10T00:39:29.574Z,99278.63
2022-08-10T00:42:01.957Z,99280.19
2022-08-10T00:44:35.558Z,99276.47
2022-08-10T00:47:03.600Z,99277.50
2022-08-10T00:49:31.813Z,99277.50
2022-08-10T00:52:02.245Z,99277.06
2022-08-10T00:54:30.998Z,99283.94
2022-08-10T00:57:17.514Z,99274.50
2022-08-10T00:59:59.021Z,99271.16
2022-08-10T01:02:30.840Z,99267.44
2022-08-10T01:05:02.238Z,99271.97
2022-08-10T01:07:43.867Z,99269.84
2022-08-10T01:10:21.839Z,99266.06
2022-08-10T01:12:55.229Z,99279.81
2022-08-10T01:15:28.526Z,99274.63
2022-08-10T01:18:02.847Z,99269.47
2022-08-10T01:20:40.193Z,99270.81
2022-08-10T01:23:46.428Z,99271.28
2022-08-10T01:26:37.257Z,99277.81
2022-08-10T01:29:43.093Z,99266.63
2022-08-10T01:32:15.979Z,99272.38
2022-08-10T01:34:49.717Z,99276.91
2022-08-10T01:37:23.059Z,99283.97
2022-08-10T01:39:57.142Z,99275.22
2022-08-10T01:42:26.783Z,99281.97
2022-08-10T01:44:58.532Z,99280.38
2022-08-10T01:47:49.626Z,99277.44
2022-08-10T01:50:22.710Z,99277.59
2022-08-10T01:52:54.265Z,99280.38
2022-08-10T01:55:24.317Z,99275.53
2022-08-10T01:57:54.756Z,99281.22
2022-08-10T02:00:23.022Z,99283.47
2022-08-10T02:02:53.830Z,99291.22
2022-08-10T02:05:25.385Z,99285.84
2022-08-10T02:07:55.752Z,99291.31
2022-08-10T02:10:25.505Z,99286.56
2022-08-10T02:12:56.650Z,99284.50
2022-08-10T02:15:28.850Z,99286.09
2022-08-10T02:18:02.243Z,99279.72
2022-08-10T02:20:35.361Z,99278.22
2022-08-10T02:23:08.526Z,99272.13
2022-08-10T02:25:41.537Z,99271.28
2022-08-10T02:28:27.310Z,99287.69
2022-08-10T02:31:01.900Z,99271.91
2022-08-10T02:33:36.933Z,99276.66
2022-08-10T02:36:09.075Z,99280.66
2022-08-10T02:38:58.437Z,99286.25
2022-08-10T02:45:12.481Z,99286.75
2022-08-10T02:45:18.089Z,99285.44
2022-08-10T02:47:23.753Z,99282.56
2022-08-10T02:50:00.141Z,99280.19
2022-08-10T02:52:36.827Z,99286.59
2022-08-10T02:55:18.614Z,99287.75
2022-08-10T02:58:16.768Z,99290.91
2022-08-10T03:00:46.487Z,99294.03
2022-08-10T03:03:20.402Z,99290.50
2022-08-10T03:05:54.968Z,99291.09
2022-08-10T03:08:28.568Z,99286.16
2022-08-10T03:11:00.770Z,99284.94
2022-08-10T03:13:31.529Z,99287.50
2022-08-10T03:16:01.689Z,99285.91
2022-08-10T03:18:31.404Z,99282.22
2022-08-10T03:21:01.142Z,99287.59
2022-08-10T03:23:30.329Z,99288.34
2022-08-10T03:26:02.004Z,99286.19
2022-08-10T03:28:32.014Z,99290.25
2022-08-10T03:31:02.888Z,99295.09
2022-08-10T03:33:34.240Z,99288.75
2022-08-10T03:36:43.986Z,99297.94
2022-08-10T03:38:52.588Z,99288.34
2022-08-10T03:41:35.657Z,99283.78
2022-08-10T03:44:06.136Z,99290.38
2022-08-10T03:46:36.739Z,99299.25
2022-08-10T03:49:07.275Z,99291.63
2022-08-10T03:51:38.856Z,99298.06
2022-08-10T03:54:08.333Z,99301.31
2022-08-10T03:56:39.056Z,99299.13
2022-08-10T03:59:09.265Z,99300.47
2022-08-10T04:02:41.930Z,99299.34
2022-08-10T04:04:26.198Z,99305.69
2022-08-10T04:06:57.925Z,99304.19
2022-08-10T04:09:54.615Z,99305.38
2022-08-10T04:12:21.054Z,99307.03
2022-08-10T04:14:52.433Z,99312.63
2022-08-10T04:18:04.156Z,99320.53
2022-08-10T04:20:19.587Z,99317.47
2022-08-10T04:22:53.469Z,99313.81
2022-08-10T04:25:23.848Z,99319.16
2022-08-10T04:27:53.409Z,99320.59
2022-08-10T04:30:21.685Z,99322.53
2022-08-10T04:32:54.765Z,99315.91
2022-08-10T04:36:04.443Z,99325.88
2022-08-10T04:38:36.731Z,99322.75
2022-08-10T04:41:18.041Z,99324.22
2022-08-10T04:43:47.405Z,99334.47
2022-08-10T04:46:55.190Z,99328.59
2022-08-10T04:49:04.825Z,99318.78
2022-08-10T04:51:32.978Z,99325.22
2022-08-10T04:54:04.057Z,99332.22
2022-08-10T04:56:38.552Z,99326.41
2022-08-10T04:59:07.928Z,99327.59
2022-08-10T05:02:21.801Z,99324.03
2022-08-10T05:04:36.023Z,99323.88
2022-08-10T05:07:05.890Z,99312.34
2022-08-10T05:10:02.394Z,99314.88
2022-08-10T05:12:23.137Z,99323.94
2022-08-10T05:14:52.027Z,99324.41
2022-08-10T05:17:20.402Z,99323.66
2022-08-10T05:20:04.201Z,99331.88
2022-08-10T05:22:36.736Z,99330.34
2022-08-10T05:25:09.040Z,99331.75
2022-08-10T05:27:37.232Z,99341.47
2022-08-10T05:30:09.473Z,99338.03
2022-08-10T05:32:56.301Z,99331.72
2022-08-10T05:35:28.397Z,99320.78
2022-08-10T05:38:10.038Z,99334.19
2022-08-10T05:40:46.511Z,99339.09
2022-08-10T05:43:18.173Z,99337.72
2022-08-10T05:46:19.144Z,99336.50
2022-08-10T05:48:54.954Z,99342.66
2022-08-10T05:51:24.440Z,99340.84
2022-08-10T05:54:02.576Z,99343.03
2022-08-10T05:56:56.844Z,99336.97
2022-08-10T06:00:11.182Z,99334.25
2022-08-10T06:02:32.733Z,99339.63
2022-08-10T06:05:08.425Z,99333.09
2022-08-10T06:07:40.073Z,99339.00
2022-08-10T06:10:12.350Z,99341.59
2022-08-10T06:12:55.530Z,99339.50
2022-08-10T06:15:52.135Z,99343.25
2022-08-10T06:18:15.564Z,99344.00
2022-08-10T06:20:47.712Z,99335.28
2022-08-10T06:23:15.688Z,99340.53
2022-08-10T06:26:10.807Z,99342.25
2022-08-10T06:28:37.692Z,99345.22
2022-08-10T06:31:08.067Z,99342.09
2022-08-10T06:33:40.374Z,99342.59
2022-08-10T06:36:09.913Z,99342.09
2022-08-10T06:38:40.626Z,99340.41
2022-08-10T06:41:19.458Z,99336.28
2022-08-10T06:43:56.661Z,99333.97
2022-08-10T06:46:27.504Z,99339.63
2022-08-10T06:49:00.107Z,99338.00
2022-08-10T06:51:31.706Z,99336.31
2022-08-10T06:54:04.073Z,99335.75
2022-08-10T06:56:36.535Z,99343.72
2022-08-10T06:59:14.591Z,99337.06
2022-08-10T07:01:53.659Z,99334.13
2022-08-10T07:04:31.921Z,99331.75
2022-08-10T07:07:04.200Z,99334.28
2022-08-10T07:09:34.279Z,99337.47
2022-08-10T07:12:07.816Z,99324.44
2022-08-10T07:14:42.045Z,99329.22
2022-08-10T07:17:15.203Z,99336.38
2022-08-10T07:19:50.065Z,99329.41
2022-08-10T07:23:04.839Z,99332.34
2022-08-10T07:25:13.221Z,99336.91
2022-08-10T07:28:00.043Z,99331.00
2022-08-10T07:30:33.191Z,99325.00
2022-08-10T07:33:03.131Z,99324.88
2022-08-10T07:35:41.882Z,99333.06
2022-08-10T07:38:17.929Z,99325.09
2022-08-10T07:40:47.245Z,99330.47
2022-08-10T07:43:17.389Z,99325.13
2022-08-10T07:45:47.892Z,99327.19
2022-08-10T07:48:18.388Z,99322.16
2022-08-10T07:50:48.174Z,99317.53
2022-08-10T07:53:28.063Z,99317.47
2022-08-10T07:56:02.059Z,99315.44
2022-08-10T07:58:37.876Z,99312.38
2022-08-10T08:01:07.299Z,99310.03
2022-08-10T08:03:35.673Z,99312.94
2022-08-10T08:06:11.762Z,99309.28
2022-08-10T08:08:43.764Z,99309.88
2022-08-10T08:11:26.245Z,99305.75
2022-08-10T08:13:56.386Z,99306.78
2022-08-10T08:16:26.696Z,99312.44
2022-08-10T08:19:26.817Z,99310.75
2022-08-10T08:24:05.896Z,99306.03
2022-08-10T08:24:36.473Z,99311.50
2022-08-10T08:27:07.713Z,99308.56
2022-08-10T08:29:40.122Z,99309.63
2022-08-10T08:32:11.522Z,99312.38
2022-08-10T08:34:41.978Z,99310.72
2022-08-10T08:37:11.816Z,99313.44
2022-08-10T08:39:41.505Z,99306.97
2022-08-10T08:42:36.053Z,99308.28
2022-08-10T08:45:14.746Z,99304.47
2022-08-10T08:48:09.316Z,99304.66
2022-08-10T08:50:57.291Z,99298.31
2022-08-10T08:54:02.007Z,99302.19
2022-08-10T08:56:40.817Z,99302.28
2022-08-10T08:59:26.451Z,99287.22
2022-08-10T09:02:10.496Z,99293.03
2022-08-10T09:05:01.319Z,99301.97
2022-08-10T09:08:00.314Z,99293.16
2022-08-10T09:10:42.484Z,99288.78
2022-08-10T09:13:26.599Z,99285.66
2022-08-10T09:16:04.240Z,99288.06
2022-08-10T09:18:41.241Z,99286.69
2022-08-10T09:21:18.804Z,99288.44
2022-08-10T09:24:05.241Z,99274.72
2022-08-10T09:26:43.795Z,99273.72
2022-08-10T09:29:16.850Z,99267.31
2022-08-10T09:32:55.037Z,99279.47
2022-08-10T09:36:25.565Z,99264.63
2022-08-10T09:38:02.116Z,99263.09
2022-08-10T09:41:00.074Z,99272.69
2022-08-10T09:43:41.112Z,99278.03
2022-08-10T09:46:29.203Z,99273.75
2022-08-10T09:49:07.129Z,99253.97
2022-08-10T09:51:46.810Z,99254.56
2022-08-10T09:54:44.006Z,99249.44
2022-08-10T09:57:46.311Z,99249.34
2022-08-10T10:00:12.756Z,99259.25
2022-08-10T10:02:52.621Z,99254.47
2022-08-10T10:05:32.071Z,99249.00
2022-08-10T10:08:10.531Z,99247.94
2022-08-10T10:10:52.368Z,99250.16
2022-08-10T10:13:50.059Z,99253.94
2022-08-10T10:16:29.348Z,99251.34
2022-08-10T10:19:08.988Z,99258.31
2022-08-10T10:21:54.215Z,99259.56
2022-08-10T10:24:34.083Z,99246.97
2022-08-10T10:27:16.342Z,99247.59
2022-08-10T10:29:56.414Z,99255.31
2022-08-10T10:32:36.893Z,99253.78
2022-08-10T10:35:16.478Z,99244.16
2022-08-10T10:38:01.103Z,99247.50
2022-08-10T10:40:38.711Z,99243.09
2022-08-10T10:43:18.893Z,99229.78
2022-08-10T10:45:58.944Z,99240.28
2022-08-10T10:48:39.472Z,99240.44
2022-08-10T10:51:13.667Z,99232.72
2022-08-10T10:53:48.839Z,99226.91
2022-08-10T10:56:37.052Z,99223.38
2022-08-10T10:59:35.490Z,99220.59
2022-08-10T11:02:18.460Z,99211.63
2022-08-10T11:04:59.029Z,99215.94
2022-08-10T11:07:35.515Z,99207.97
2022-08-10T11:10:31.897Z,99208.28
2022-08-10T11:14:26.843Z,99203.88
2022-08-10T11:16:18.184Z,99204.69
2022-08-10T11:19:04.537Z,99203.19
2022-08-10T11:21:46.706Z,99206.00
2022-08-10T11:24:42.969Z,99204.47
2022-08-10T11:27:21.571Z,99203.69
2022-08-10T11:30:07.022Z,99197.75
2022-08-10T11:32:46.630Z,99201.56
2022-08-10T11:35:24.159Z,99203.13
2022-08-10T11:38:30.079Z,99196.28
2022-08-10T11:41:05.620Z,99198.34
2022-08-10T11:43:56.950Z,99192.88
2022-08-10T11:46:31.545Z,99205.16
2022-08-10T11:49:12.628Z,99200.22
2022-08-10T11:51:46.202Z,99188.50
2022-08-10T11:54:26.378Z,99188.59
2022-08-10T11:57:02.228Z,99187.13
2022-08-10T11:59:50.835Z,99191.06
2022-08-10T12:02:32.616Z,99189.34
2022-08-10T12:05:08.039Z,99190.28
2022-08-10T12:10:03.805Z,99176.31
2022-08-10T12:10:29.413Z,99178.91
2022-08-10T12:13:06.000Z,99183.50
2022-08-10T12:15:41.211Z,99179.25
2022-08-10T12:18:16.466Z,99183.22
2022-08-10T12:20:50.853Z,99175.84
2022-08-10T12:23:23.515Z,99176.66
2022-08-10T12:26:07.520Z,99176.94
2022-08-10T12:28:50.402Z,99180.72
2022-08-10T12:31:24.503Z,99177.63
2022-08-10T12:34:05.727Z,99161.22
2022-08-10T12:36:42.492Z,99164.63
2022-08-10T12:39:17.538Z,99159.38
2022-08-10T12:41:54.150Z,99154.22
2022-08-10T12:44:41.495Z,99163.00
2022-08-10T12:47:19.235Z,99155.78
2022-08-10T12:50:29.531Z,99161.91
2022-08-10T12:52:51.354Z,99152.72
2022-08-10T12:55:20.689Z,99146.84
2022-08-10T12:57:53.355Z,99147.94
2022-08-10T13:00:27.082Z,99138.59
2022-08-10T13:02:55.996Z,99142.44
2022-08-10T13:05:28.148Z,99147.38
2022-08-10T13:08:27.640Z,99132.81
2022-08-10T13:11:02.794Z,99127.34
2022-08-10T13:13:34.724Z,99127.34
2022-08-10T13:16:04.151Z,99134.97
2022-08-10T13:18:35.958Z,99110.75
2022-08-10T13:21:20.453Z,99123.81
2022-08-10T13:24:04.029Z,99130.25
2022-08-10T13:26:36.974Z,99108.75
2022-08-10T13:29:12.899Z,99106.25
2022-08-10T13:32:04.399Z,99090.28
2022-08-10T13:34:43.393Z,99091.47
2022-08-10T13:37:16.798Z,99108.00
2022-08-10T13:39:59.207Z,99098.16
2022-08-10T13:42:35.053Z,99096.44
2022-08-10T13:45:10.328Z,99082.69
2022-08-10T13:47:48.680Z,99084.78
2022-08-10T13:50:33.318Z,99096.16
2022-08-10T13:53:09.975Z,99096.63
2022-08-10T13:55:53.951Z,99083.50
2022-08-10T13:58:27.137Z,99084.22
2022-08-10T14:00:59.942Z,99087.91
2022-08-10T14:03:29.458Z,99080.63
2022-08-10T14:05:59.730Z,99085.69
2022-08-10T14:08:30.814Z,99083.09
2022-08-10T14:11:10.851Z,99080.25
2022-08-10T14:13:47.423Z,99078.50
2022-08-10T14:16:16.654Z,99072.66
2022-08-10T14:18:49.896Z,99063.63
2022-08-10T14:21:18.184Z,99063.97
2022-08-10T14:23:52.762Z,99071.66
2022-08-10T14:26:26.628Z,99070.50
2022-08-10T14:28:57.317Z,99057.69
2022-08-10T14:31:33.455Z,99053.66
2022-08-10T14:34:04.736Z,99058.38
2022-08-10T14:36:42.130Z,99061.38
2022-08-10T14:39:16.043Z,99048.06
2022-08-10T14:42:01.177Z,99046.81
2022-08-10T14:44:46.073Z,99053.38
2022-08-10T14:47:53.110Z,99049.22
2022-08-10T14:50:07.953Z,99052.94
2022-08-10T14:52:44.386Z,99044.63
2022-08-10T14:55:25.516Z,99052.47
2022-08-10T14:58:19.925Z,99033.69
2022-08-10T15:00:51.871Z,99046.25
2022-08-10T15:03:59.492Z,99047.06
2022-08-10T15:06:18.329Z,99040.63
2022-08-10T15:08:48.228Z,99040.16
2022-08-10T15:12:13.901Z,99039.81
2022-08-10T15:14:38.782Z,99032.72
2022-08-10T15:16:59.558Z,99025.28
2022-08-10T15:20:02.162Z,99022.75
2022-08-10T15:22:37.145Z,99027.75
2022-08-10T15:25:18.661Z,99023.06
2022-08-10T15:27:53.980Z,99034.78
2022-08-10T15:30:32.104Z,99029.06
2022-08-10T15:33:57.626Z,99025.44
2022-08-10T15:36:33.262Z,99029.16
2022-08-10T15:39:14.116Z,99021.19
2022-08-10T15:42:01.682Z,99014.28
2022-08-10T15:44:39.195Z,99013.72
2022-08-10T15:47:12.104Z,99015.28
2022-08-10T15:49:50.535Z,99011.34
2022-08-10T15:52:59.794Z,99019.50
2022-08-10T15:55:42.364Z,99016.75
2022-08-10T15:58:09.904Z,99004.94
2022-08-10T16:00:41.154Z,99005.59
2022-08-10T16:03:18.040Z,99003.72
2022-08-10T16:06:00.579Z,99013.34
2022-08-10T16:08:56.405Z,98994.28
2022-08-10T16:11:38.092Z,98998.13
2022-08-10T16:14:18.269Z,98991.50
2022-08-10T16:16:51.186Z,98989.41
2022-08-10T16:19:25.393Z,98997.50
2022-08-10T16:22:34.173Z,98990.19
2022-08-10T16:24:52.336Z,98983.56
2022-08-10T16:27:26.892Z,98978.63
2022-08-10T16:30:00.725Z,98988.47
2022-08-10T16:32:30.970Z,98984.25
2022-08-10T16:35:08.866Z,98990.13
2022-08-10T16:37:57.449Z,98981.84
2022-08-10T16:40:28.791Z,98979.16
2022-08-10T16:42:58.700Z,98993.91
2022-08-10T16:45:32.027Z,98985.47
2022-08-10T16:48:02.480Z,98979.31
2022-08-10T16:50:36.523Z,98990.28
2022-08-10T16:53:07.889Z,98983.50
2022-08-10T16:55:48.972Z,98983.91
2022-08-10T16:58:21.719Z,98974.72
2022-08-10T17:00:51.289Z,98978.72
2022-08-10T17:04:07.032Z,98970.94
2022-08-10T17:06:22.048Z,98974.13
2022-08-10T17:08:53.943Z,98967.59
2022-08-10T17:11:24.460Z,98971.78
2022-08-10T17:13:56.588Z,98970.78
2022-08-10T17:16:26.847Z,98978.56
2022-08-10T17:19:01.653Z,98971.69
2022-08-10T17:21:38.612Z,98966.88
2022-08-10T17:24:24.151Z,98962.22
2022-08-10T17:26:52.896Z,98973.50
2022-08-10T17:29:58.026Z,98967.50
2022-08-10T17:32:29.415Z,98969.47
2022-08-10T17:35:01.040Z,98974.34
2022-08-10T17:37:37.346Z,98970.66
2022-08-10T17:40:10.843Z,98965.31
2022-08-10T17:42:40.814Z,98972.44
2022-08-10T17:45:20.851Z,98964.13
2022-08-10T17:48:08.069Z,98969.66
2022-08-10T17:50:37.987Z,98974.28
2022-08-10T17:53:14.470Z,98975.03
2022-08-10T17:55:45.690Z,98962.44
2022-08-10T17:58:16.187Z,98964.94
2022-08-10T18:00:48.476Z,98971.38
2022-08-10T18:03:25.061Z,98970.44
2022-08-10T18:05:56.102Z,98977.81
2022-08-10T18:08:30.140Z,98976.22
2022-08-10T18:11:00.131Z,98977.06
2022-08-10T18:13:55.968Z,98971.53
2022-08-10T18:16:25.953Z,98982.78
2022-08-10T18:19:00.682Z,98981.63
2022-08-10T18:21:32.063Z,98994.22
2022-08-10T18:24:07.522Z,98987.53
2022-08-10T18:26:38.262Z,98987.53
2022-08-10T18:29:11.726Z,98992.97
2022-08-10T18:31:43.979Z,98993.19
2022-08-10T18:34:13.181Z,98995.25
2022-08-10T18:36:43.194Z,99005.00
2022-08-10T18:39:15.492Z,98997.09
2022-08-10T18:42:00.553Z,98992.31
2022-08-10T18:44:37.560Z,98993.31
2022-08-10T18:47:14.010Z,99004.72
2022-08-10T18:49:54.970Z,99003.03
2022-08-10T18:52:26.371Z,99002.13
2022-08-10T18:55:04.651Z,99008.72
2022-08-10T18:57:59.226Z,99010.31
2022-08-10T19:00:33.026Z,99017.66
2022-08-10T19:03:19.989Z,99012.78
2022-08-10T19:06:08.376Z,99014.38
2022-08-10T19:08:54.847Z,99013.22
2022-08-10T19:11:37.771Z,99021.69
2022-08-10T19:14:13.752Z,99023.09
2022-08-10T19:16:48.847Z,99024.38
2022-08-10T19:19:29.839Z,99027.97
2022-08-10T19:22:07.184Z,99025.44
2022-08-10T19:24:48.227Z,99031.47
2022-08-10T19:27:43.384Z,99035.06
2022-08-10T19:30:14.524Z,99038.84
2022-08-10T19:32:53.373Z,99044.41
2022-08-10T19:36:03.839Z,99041.41
2022-08-10T19:38:33.403Z,99039.97
2022-08-10T19:41:15.054Z,99042.66
2022-08-10T19:44:00.465Z,99048.44
2022-08-10T19:46:51.414Z,99042.16
2022-08-10T19:49:45.890Z,99043.53
2022-08-10T19:52:28.727Z,99042.53
2022-08-10T19:55:12.425Z,99040.97
2022-08-10T19:57:53.079Z,99037.75
2022-08-10T20:00:27.040Z,99040.22
2022-08-10T20:03:17.985Z,99049.19
2022-08-10T20:06:19.242Z,99047.34
2022-08-10T20:08:51.710Z,99053.59
2022-08-10T20:11:46.426Z,99059.81
2022-08-10T20:14:21.498Z,99056.75
2022-08-10T20:16:56.214Z,99063.06
2022-08-10T20:19:52.476Z,99061.47
2022-08-10T20:22:29.902Z,99061.16
2022-08-10T20:25:02.869Z,99059.66
2022-08-10T20:28:00.368Z,99063.63
2022-08-10T20:30:28.044Z,99063.88
2022-08-10T20:33:01.624Z,99066.06
2022-08-10T20:35:40.733Z,99064.72
2022-08-10T20:38:11.201Z,99065.78
2022-08-10T20:40:44.318Z,99072.88
2022-08-10T20:43:21.223Z,99056.38
2022-08-10T20:46:08.464Z,99067.09
2022-08-10T20:48:45.112Z,99061.03
2022-08-10T20:51:16.247Z,99065.94
2022-08-10T20:53:50.828Z,99060.06
2022-08-10T20:56:34.216Z,99065.66
2022-08-10T20:59:14.358Z,99059.19
2022-08-10T21:02:10.945Z,99053.31
2022-08-10T21:04:52.546Z,99051.91
2022-08-10T21:08:00.680Z,99055.97
2022-08-10T21:10:39.222Z,99050.03
2022-08-10T21:13:22.006Z,99059.34
2022-08-10T21:16:02.050Z,99049.56
2022-08-10T21:18:51.890Z,99049.06
2022-08-10T21:24:33.358Z,99051.31
2022-08-10T21:27:15.461Z,99049.28
2022-08-10T21:29:55.893Z,99044.25
2022-08-10T21:32:36.533Z,99053.78
2022-08-10T21:35:20.027Z,99061.78
2022-08-10T21:41:17.723Z,99059.63
2022-08-10T21:44:11.412Z,99055.28
2022-08-10T21:47:06.320Z,99062.78
2022-08-10T21:50:07.252Z,99055.00
2022-08-10T21:53:00.883Z,99057.94
2022-08-10T21:56:02.669Z,99065.22
2022-08-10T21:58:54.783Z,99064.25
2022-08-10T22:01:51.453Z,99073.09
2022-08-10T22:04:38.248Z,99068.81
2022-08-10T22:07:27.532Z,99064.91
2022-08-10T22:10:16.633Z,99063.56
2022-08-10T22:13:08.510Z,99064.91
2022-08-10T22:16:09.755Z,99066.41
2022-08-10T22:19:02.921Z,99072.31
2022-08-10T22:25:21.993Z,99063.75
2022-08-10T22:28:17.566Z,99062.19
2022-08-10T22:31:24.560Z,99055.53
2022-08-10T22:31:24.935Z,99057.06
2022-08-10T22:31:26.031Z,99079.97
2022-08-10T22:31:30.233Z,99057.84
2022-08-10T22:34:24.946Z,99055.47
2022-08-10T22:37:23.789Z,99058.00
2022-08-10T22:40:20.830Z,99072.06
2022-08-10T22:43:12.149Z,99065.88
2022-08-10T22:46:06.254Z,99071.66
2022-08-10T22:48:59.806Z,99064.72
2022-08-10T22:51:36.540Z,99063.84
2022-08-10T22:54:31.984Z,99073.00
2022-08-10T22:57:19.433Z,99069.88
2022-08-10T22:59:50.247Z,99074.59
2022-08-10T23:02:29.668Z,99066.53
2022-08-10T23:05:03.156Z,99071.44
2022-08-10T23:07:33.140Z,99063.56
2022-08-10T23:10:05.574Z,99059.50
2022-08-10T23:12:40.411Z,99062.53
2022-08-10T23:15:37.071Z,99073.59
2022-08-10T23:18:26.469Z,99063.22
2022-08-10T23:20:57.819Z,99072.63
2022-08-10T23:23:28.785Z,99072.59
2022-08-10T23:26:00.339Z,99074.63
2022-08-10T23:28:38.939Z,99071.09
2022-08-10T23:31:59.149Z,99065.75
2022-08-10T23:34:14.653Z,99065.56
2022-08-10T23:36:43.662Z,99068.84
2022-08-10T23:39:25.871Z,99066.84
2022-08-10T23:42:03.113Z,99057.47
2022-08-10T23:44:41.750Z,99064.72
2022-08-10T23:47:13.425Z,99067.19
2022-08-10T23:49:43.153Z,99059.47
2022-08-10T23:52:13.895Z,99053.63
2022-08-10T23:54:48.951Z,99056.97
2022-08-10T23:57:19.583Z,99051.94
2022-08-10T23:59:53.995Z,99053.25
